首页
METAR-TAF:

METAR-TAF

机场 :

阿道弗·苏亚雷斯马德里-巴拉哈斯机场

马德里, 西班牙

纬度: 40-27N, 经度: 003-33W, 海拔: 609米

当前天气观测

该预报发布于37分钟前的08:30 UTC
风速3节,风向
温度 -4°C
湿度 100%
气压 1017 hPa
能見度: 8000

METAR: LEMD 190830Z 01003KT 8000 NSC M04/M04 Q1017 NOSIG

时间: 10:07 (09:07 UTC)

预报

该预报发布于4小时和7分钟前的05:00 UTC
预报有效从19日的 06点(UTC)到 20日的 12点(UTC)
风速5节,风向多变
能见度10公里或以上
少量云层高于5000英尺
几率 40% :
短暂存在
从 19日的 06点(UTC)到 19日的 10点(UTC)
能見度: 3000
轻雾
几率 30% :
短暂存在
从 19日的 06点(UTC)到 19日的 10点(UTC)
能見度: 0600
多云层高于100英尺
短暂存在
从 19日的 09点(UTC)到 19日的 24点(UTC)
能見度: 3000
多云层高于1400英尺
雨, 轻雾
几率 30% :
短暂存在
从 20日的 00点(UTC)到 20日的 06点(UTC)
能見度: 3000
多云层高于1400英尺
成为
从 20日的 09点(UTC)到 20日的 11点(UTC)
风速12节,风向

TAF: LEMD 190500Z 1906/2012 VRB05KT 9999 FEW050 TX06/1915Z TNM04/1907Z PROB40 TEMPO 1906/1910 3000 BR PROB30 TEMPO 1906/1910 0600 FG BKN001 TEMPO 1909/1924 3000 RA BR BKN014 PROB30 TEMPO 2000/2006 3000 RA BKN014 BECMG 2009/2011 01012KT

超过4000个机场的气象观测和天气预报(METAR&TAF报告)。

可查询的气象台以黄色和红色小点在地图上表示。

将鼠标移到小点上方,可查看气象台名称。

然后点击查看天气观测和预报。

如需切换地图:点击带黑十字的绿色按钮放大地图;点击带横线的绿色按钮缩小地图;或者点击绿色箭头查看邻近地区的地图。


METAR-TAF: